Aeroporto :
LOGIN :

Iscrizione | Disclaimer

   EN    FR    IT 

 










Sommario :    VFR   VFR Marginale   IFR   IFR Intensivo   IFR Molto Intensivo
Visibilità : 
Base nubi : 
>= 8 km
>= 3000ft
5 / 8 km
1000 / 3000 ft
1500m / 5 km
500 / 1000 ft
800 / 1500m
200 / 500 ft
< 800m
< 200 ft
Simboli :   Temporali  Nebbia  Neve Forte  Precipitazioni Forti  Vento > 20 kt
SIGMETs :   Varie  Temporali  Ghiacco  Turbolenza  Onda orograficha  Ceneri Vulcaniche






- Altitudine del aeroporto : 2001 ft
- Codice IATA : MAD


LEMD - Madrid

ULTIMO METAR :
  • 191200Z 20007KT 170V230 9999 SCT025 BKN035 16/08 Q1010 NOSIG

METARs OBSOLETI :
  • 191130Z 20008G19KT 120V220 9999 SCT025 BKN035 16/08 Q1011 NOSIG
  • 191100Z 20011G24KT 110V250 9999 SCT025 BKN035 15/08 Q1011 NOSIG
  • 191030Z 20011G21KT 150V240 9999 SCT025 BKN035 16/08 Q1011 NOSIG
  • 191000Z 22010G20KT 190V250 9999 SCT022 BKN035 14/09 Q1012 NOSIG
  • 190930Z 19007KT 140V230 9999 BKN040 14/09 Q1012 NOSIG

TAF TAF LEMD
Valido dal 19 a 12 ore il 20 a 18 ore UTC


191100Z 1912/2018 22010KT 9999 BKN035 TX20/1915Z TN07/2006Z
PROB40
TEMPO 1914/1917 22012G22KT
TEMPO 1918/1924 4000 DZRA BR BKN012 OVC025
PROB40
TEMPO 1919/1924 4000 TS SHRA SCT020CB
PROB40
TEMPO 2006/2017 4000 SHRA BKN014 SCT025TCU



MetMap, La meteo Aeronautica in un colpo d'occhio ! - Copyright ORBIFLY Dicembre 2007 - Disclaimer

ORBIFLY MET'MAP TEAM :

Programmazione e sviluppo : Alexandra Zaïnal
Concezione e sviluppo : Baudouin d'Aumeries
Co-Programmazione e sviluppo : Marc-Olivier Méhu
Supporto tecnico e logistico : Manuel Goepfert
Aiuto per la traduzione : Arnaldo La Scala

Contatto : metmap@orbifly.com




FONTI E CREDITI :

   NOAA